Ellenburg, New York
Current Conditions -  °F | °C
As of 3:53 AM on Wednesday 22 Oct 2014 (Local Time) from KPBG Reporting Station
Overcast Overcast  
Wind Chill: 36°   Ceiling: 1000
Heat Index: 43°   Visibility: 10mi
Dew Point: 41°   Wind: 14mph
Humidity: 93%   Direction: 340°NNW
Pressure: 30.13"   Gusts: NA
Location:  44.89°N, 73.84°W
Report Text: KPBG 220753Z AUTO 34012KT 10SM OVC010 06/05 A3013 RMK AO2 SLP203 T00610050
Loading
Personal Weather Stations






























Interactive Weather Map
Tropical Storm Tracking
New forecast layout! Learn more

10-Day Weather Forecast

Advertisements
Track Severe Weather on mobile